Kezdőlap
METAR-TAF:

METAR-TAF

Repülőterek :

Bric della Croce

Torino, Olaszország

földrajzi szélesség: 45-02N, földrajzi hosszúság: 007-44E, magasság: 709 m

Jelenlegi meteorológiai megfigyelések

A jelentés 45 perccel ezelõtt készült, 11:55 UTC
Észak-északkeleti szél 3 kt
Hőmérséklet 3°C
Páratartalom 93%
Légköri nyomás 1014 hPa
Látótávolság 10 km, vagy több
Kevés felhő 1500 lábon
Szakadozott felhőzet 3000 lábon

METAR: LIMK 151155Z 02003KT 9999 FEW015 BKN030 03/02 Q1014 RMK OVC VAL FOSCHIA VIS MIN 9999

Idő: 13:40 (12:40 UTC)


TAF: hiányzik

Meteorológiai megfigyelések és előrejelzések több, mint 4000 repülőtéren (METAR és TAF jelentéseket).

A térképen piros és sárga pontok jelzik az elérhető meteorológiai állomásokat.

Mozgassa az egeret a pont fölött, hogy megjelenjen az állomás neve.

Azután kattintson az időjárási megfigyelések és előrejelzések megtekintéséhez.

A térkép megváltoztatása: kattintson a fekete keresztel jelölt zöld gombra ráközelítéshez, a vonallal jelölt zöld gombra távolításhoz, vagy a zöld nyilakra a szomszédos térképek eléréséhez.


METAR-TAF: